createdAt,value
2022-08-26T00:00:23.392Z,63.72
2022-08-26T00:02:57.030Z,63.41
2022-08-26T00:05:30.016Z,63.64
2022-08-26T00:08:01.604Z,63.25
2022-08-26T00:10:33.318Z,63.19
2022-08-26T00:13:06.222Z,63.27
2022-08-26T00:15:38.812Z,64.02
2022-08-26T00:18:22.379Z,64.58
2022-08-26T00:20:55.866Z,64.98
2022-08-26T00:23:28.944Z,65.33
2022-08-26T00:26:00.769Z,65.17
2022-08-26T00:28:33.351Z,65.28
2022-08-26T00:31:05.845Z,65.42
2022-08-26T00:33:38.494Z,65.45
2022-08-26T00:36:14.416Z,65.41
2022-08-26T00:38:51.834Z,65.17
2022-08-26T00:41:23.764Z,65.27
2022-08-26T00:43:55.089Z,65.53
2022-08-26T00:46:30.407Z,65.61
2022-08-26T00:49:12.045Z,65.12
2022-08-26T00:51:49.263Z,65.46
2022-08-26T00:54:24.281Z,65.56
2022-08-26T00:57:02.708Z,65.40
2022-08-26T00:59:36.490Z,65.68
2022-08-26T01:02:18.002Z,65.25
2022-08-26T01:04:55.577Z,65.03
2022-08-26T01:07:30.191Z,65.57
2022-08-26T01:10:05.158Z,66.01
2022-08-26T01:12:41.120Z,66.42
2022-08-26T01:15:16.553Z,66.67
2022-08-26T01:17:48.085Z,66.63
2022-08-26T01:20:30.590Z,66.29
2022-08-26T01:23:05.580Z,66.30
2022-08-26T01:25:43.647Z,66.42
2022-08-26T01:28:18.463Z,66.14
2022-08-26T01:30:53.207Z,65.89
2022-08-26T01:33:30.592Z,65.91
2022-08-26T01:36:16.711Z,65.95
2022-08-26T01:38:48.539Z,65.98
2022-08-26T01:41:27.474Z,65.98
2022-08-26T01:44:02.432Z,66.36
2022-08-26T01:46:35.829Z,66.43
2022-08-26T01:49:10.495Z,66.33
2022-08-26T01:51:44.658Z,66.86
2022-08-26T01:54:16.751Z,67.25
2022-08-26T01:56:52.909Z,67.31
2022-08-26T01:59:25.610Z,67.36
2022-08-26T02:01:57.415Z,67.05
2022-08-26T02:04:35.288Z,66.60
2022-08-26T02:07:09.687Z,66.47
2022-08-26T02:09:42.780Z,66.40
2022-08-26T02:12:16.601Z,66.91
2022-08-26T02:14:52.232Z,67.38
2022-08-26T02:17:28.019Z,67.81
2022-08-26T02:19:59.682Z,67.90
2022-08-26T02:22:32.344Z,67.85
2022-08-26T02:25:11.455Z,67.80
2022-08-26T02:27:42.917Z,67.16
2022-08-26T02:30:18.154Z,66.92
2022-08-26T02:32:49.782Z,67.06
2022-08-26T02:35:23.381Z,66.77
2022-08-26T02:37:54.919Z,66.46
2022-08-26T02:40:29.284Z,65.65
2022-08-26T02:42:59.079Z,65.90
2022-08-26T02:45:31.845Z,65.96
2022-08-26T02:48:09.580Z,65.97
2022-08-26T02:50:43.753Z,65.71
2022-08-26T02:53:15.888Z,65.66
2022-08-26T02:55:49.909Z,65.43
2022-08-26T02:58:21.712Z,65.63
2022-08-26T03:00:53.908Z,65.53
2022-08-26T03:03:26.597Z,65.57
2022-08-26T03:05:59.691Z,65.29
2022-08-26T03:08:31.195Z,65.12
2022-08-26T03:11:02.586Z,65.45
2022-08-26T03:13:34.236Z,66.01
2022-08-26T03:16:06.205Z,66.14
2022-08-26T03:18:38.339Z,66.01
2022-08-26T03:21:12.261Z,66.22
2022-08-26T03:23:44.855Z,66.04
2022-08-26T03:26:17.772Z,66.01
2022-08-26T03:29:06.514Z,65.83
2022-08-26T03:31:44.715Z,65.79
2022-08-26T03:34:24.283Z,65.62
2022-08-26T03:37:02.502Z,65.45
2022-08-26T03:39:41.263Z,65.55
2022-08-26T03:42:12.720Z,65.85
2022-08-26T03:44:44.199Z,66.27
2022-08-26T03:47:16.086Z,65.91
2022-08-26T03:49:47.906Z,66.18
2022-08-26T03:52:19.299Z,65.97
2022-08-26T03:54:50.662Z,66.04
2022-08-26T03:57:22.223Z,65.98
2022-08-26T03:59:53.813Z,65.96
2022-08-26T04:02:25.609Z,66.20
2022-08-26T04:04:56.941Z,65.79
2022-08-26T04:07:28.466Z,65.50
2022-08-26T04:10:03.279Z,65.38
2022-08-26T04:12:34.801Z,65.10
2022-08-26T04:15:07.665Z,65.33
2022-08-26T04:17:39.151Z,65.21
2022-08-26T04:20:16.261Z,65.18
2022-08-26T04:22:48.378Z,65.59
2022-08-26T04:25:20.527Z,65.28
2022-08-26T04:27:52.908Z,65.38
2022-08-26T04:30:24.603Z,64.49
2022-08-26T04:32:57.029Z,63.73
2022-08-26T04:35:29.217Z,62.83
2022-08-26T04:38:01.032Z,61.81
2022-08-26T04:40:32.523Z,60.43
2022-08-26T04:43:03.885Z,59.22
2022-08-26T04:45:37.623Z,58.19
2022-08-26T04:48:11.143Z,57.26
2022-08-26T04:50:43.004Z,56.41
2022-08-26T04:53:14.450Z,56.08
2022-08-26T04:55:45.974Z,55.60
2022-08-26T04:58:20.827Z,55.02
2022-08-26T05:00:55.209Z,55.33
2022-08-26T05:03:30.600Z,55.73
2022-08-26T05:06:04.624Z,56.23
2022-08-26T05:08:36.824Z,56.19
2022-08-26T05:11:10.075Z,55.59
2022-08-26T05:13:41.942Z,54.70
2022-08-26T05:16:16.452Z,53.84
2022-08-26T05:18:47.929Z,52.67
2022-08-26T05:21:24.725Z,52.27
2022-08-26T05:23:56.988Z,51.92
2022-08-26T05:26:30.141Z,51.23
2022-08-26T05:29:01.774Z,50.95
2022-08-26T05:31:35.107Z,50.89
2022-08-26T05:34:09.000Z,50.47
2022-08-26T05:36:40.610Z,50.53
2022-08-26T05:39:12.036Z,50.71
2022-08-26T05:41:45.175Z,50.55
2022-08-26T05:44:16.471Z,49.97
2022-08-26T05:46:48.350Z,50.52
2022-08-26T05:49:26.429Z,49.87
2022-08-26T05:51:58.028Z,48.79
2022-08-26T05:54:29.580Z,48.26
2022-08-26T05:57:01.000Z,47.88
2022-08-26T05:59:32.497Z,47.55
2022-08-26T06:02:05.259Z,47.08
2022-08-26T06:04:36.989Z,46.54
2022-08-26T06:07:13.401Z,45.94
2022-08-26T06:09:45.199Z,45.23
2022-08-26T06:12:17.359Z,45.08
2022-08-26T06:14:49.881Z,44.55
2022-08-26T06:17:21.531Z,45.00
2022-08-26T06:19:54.938Z,45.17
2022-08-26T06:22:42.740Z,45.45
2022-08-26T06:25:32.083Z,45.45
2022-08-26T06:28:03.776Z,45.49
2022-08-26T06:30:35.795Z,45.64
2022-08-26T06:33:07.616Z,45.82
2022-08-26T06:35:41.858Z,45.48
2022-08-26T06:38:11.578Z,45.17
2022-08-26T06:40:46.161Z,45.37
2022-08-26T06:43:18.830Z,45.30
2022-08-26T06:45:51.419Z,45.77
2022-08-26T06:48:23.549Z,45.78
2022-08-26T06:51:06.635Z,45.59
2022-08-26T06:53:38.776Z,45.71
2022-08-26T06:56:14.418Z,45.02
2022-08-26T06:58:45.964Z,44.70
2022-08-26T07:01:23.595Z,44.94
2022-08-26T07:03:59.071Z,45.52
2022-08-26T07:06:32.440Z,45.75
2022-08-26T07:09:06.897Z,45.94
2022-08-26T07:11:42.313Z,45.91
2022-08-26T07:14:14.296Z,45.85
2022-08-26T07:16:47.918Z,45.63
2022-08-26T07:19:29.966Z,45.67
2022-08-26T07:22:04.362Z,45.28
2022-08-26T07:24:37.775Z,44.88
2022-08-26T07:27:13.451Z,44.78
2022-08-26T07:29:45.785Z,44.47
2022-08-26T07:32:20.745Z,44.46
2022-08-26T07:34:54.424Z,43.92
2022-08-26T07:37:26.137Z,43.55
2022-08-26T07:39:57.854Z,43.90
2022-08-26T07:42:29.374Z,44.53
2022-08-26T07:45:00.906Z,44.35
2022-08-26T07:47:32.486Z,43.84
2022-08-26T07:50:04.265Z,43.66
2022-08-26T07:52:39.083Z,44.39
2022-08-26T07:55:13.166Z,44.50
2022-08-26T07:57:44.679Z,44.32
2022-08-26T08:00:19.084Z,44.44
2022-08-26T08:02:51.497Z,43.97
2022-08-26T08:05:33.517Z,43.46
2022-08-26T08:08:26.694Z,43.13
2022-08-26T08:10:59.658Z,42.58
2022-08-26T08:13:31.383Z,42.34
2022-08-26T08:16:05.375Z,42.48
2022-08-26T08:18:36.797Z,42.54
2022-08-26T08:21:21.945Z,42.09
2022-08-26T08:23:57.722Z,42.18
2022-08-26T08:26:30.463Z,42.08
2022-08-26T08:29:02.014Z,41.56
2022-08-26T08:34:28.261Z,41.24
2022-08-26T08:37:01.385Z,40.43
2022-08-26T08:39:35.476Z,40.22
2022-08-26T08:42:35.497Z,40.20
2022-08-26T08:45:12.337Z,40.30
2022-08-26T08:47:48.521Z,39.87
2022-08-26T08:50:27.310Z,39.59
2022-08-26T08:53:11.463Z,39.53
2022-08-26T08:55:46.192Z,39.49
2022-08-26T08:58:21.017Z,39.92
2022-08-26T09:01:01.827Z,39.33
2022-08-26T09:03:50.140Z,39.24
2022-08-26T09:06:21.784Z,39.25
2022-08-26T09:08:55.825Z,38.36
2022-08-26T09:11:27.592Z,38.28
2022-08-26T09:14:00.325Z,38.11
2022-08-26T09:16:44.253Z,38.31
2022-08-26T09:19:25.682Z,37.78
2022-08-26T09:22:05.870Z,37.50
2022-08-26T09:24:48.426Z,37.65
2022-08-26T09:27:40.398Z,37.46
2022-08-26T09:30:15.533Z,37.60
2022-08-26T09:33:02.562Z,37.58
2022-08-26T09:35:39.000Z,37.74
2022-08-26T09:38:26.853Z,37.87
2022-08-26T09:41:01.924Z,37.91
2022-08-26T09:43:34.851Z,37.36
2022-08-26T09:46:20.249Z,36.54
2022-08-26T09:48:53.211Z,36.69
2022-08-26T09:51:33.631Z,36.34
2022-08-26T09:54:08.223Z,36.21
2022-08-26T09:56:42.230Z,36.57
2022-08-26T09:59:15.202Z,36.24
2022-08-26T10:01:50.499Z,35.80
2022-08-26T10:04:27.375Z,35.95
2022-08-26T10:07:04.669Z,35.53
2022-08-26T10:09:40.994Z,35.55
2022-08-26T10:12:17.995Z,35.37
2022-08-26T10:14:53.676Z,35.06
2022-08-26T10:17:31.868Z,34.38
2022-08-26T10:20:22.496Z,34.00
2022-08-26T10:23:00.272Z,34.57
2022-08-26T10:25:35.760Z,34.48
2022-08-26T10:28:12.721Z,34.26
2022-08-26T10:30:52.557Z,33.59
2022-08-26T10:33:25.024Z,33.41
2022-08-26T10:35:59.909Z,33.07
2022-08-26T10:38:35.840Z,33.30
2022-08-26T10:41:13.164Z,33.40
2022-08-26T10:43:50.787Z,33.02
2022-08-26T10:46:27.375Z,32.85
2022-08-26T10:49:06.503Z,33.09
2022-08-26T10:51:48.891Z,32.95
2022-08-26T10:54:27.171Z,32.75
2022-08-26T10:57:04.071Z,33.06
2022-08-26T10:59:53.679Z,32.90
2022-08-26T11:02:32.627Z,33.25
2022-08-26T11:05:07.679Z,33.09
2022-08-26T11:07:52.926Z,33.45
2022-08-26T11:10:58.959Z,33.24
2022-08-26T11:14:03.268Z,33.06
2022-08-26T11:16:43.954Z,33.19
2022-08-26T11:20:00.734Z,33.26
2022-08-26T11:22:45.454Z,33.35
2022-08-26T11:25:20.838Z,33.42
2022-08-26T11:28:00.964Z,32.90
2022-08-26T11:30:57.993Z,32.91
2022-08-26T11:33:59.428Z,33.04
2022-08-26T11:37:04.279Z,33.48
2022-08-26T11:39:54.685Z,33.25
2022-08-26T11:42:34.597Z,32.81
2022-08-26T11:45:15.657Z,32.13
2022-08-26T11:47:49.256Z,31.02
2022-08-26T11:50:26.398Z,31.55
2022-08-26T11:53:02.436Z,32.15
2022-08-26T11:55:35.994Z,31.25
2022-08-26T11:58:09.078Z,30.70
2022-08-26T12:00:48.689Z,31.15
2022-08-26T12:03:23.957Z,31.48
2022-08-26T12:05:57.538Z,30.82
2022-08-26T12:08:34.812Z,31.10
2022-08-26T12:11:08.895Z,31.49
2022-08-26T12:13:43.036Z,31.71
2022-08-26T12:16:24.511Z,31.41
2022-08-26T12:18:57.213Z,30.14
2022-08-26T12:21:34.672Z,30.09
2022-08-26T12:24:08.228Z,30.07
2022-08-26T12:26:40.991Z,30.35
2022-08-26T12:29:27.249Z,30.14
2022-08-26T12:32:13.728Z,30.94
2022-08-26T12:34:50.508Z,30.86
2022-08-26T12:37:22.237Z,31.06
2022-08-26T12:39:54.285Z,31.35
2022-08-26T12:42:42.268Z,31.15
2022-08-26T12:45:14.499Z,31.42
2022-08-26T12:47:47.535Z,30.80
2022-08-26T12:50:23.716Z,30.80
2022-08-26T12:53:02.701Z,31.32
2022-08-26T12:55:44.046Z,31.85
2022-08-26T12:58:27.593Z,32.05
2022-08-26T13:01:20.592Z,32.14
2022-08-26T13:03:52.629Z,32.12
2022-08-26T13:06:32.957Z,31.69
2022-08-26T13:09:06.839Z,31.28
2022-08-26T13:12:02.135Z,30.58
2022-08-26T13:14:33.841Z,30.65
2022-08-26T13:17:05.910Z,31.02
2022-08-26T13:19:37.387Z,30.43
2022-08-26T13:22:09.129Z,30.63
2022-08-26T13:24:43.786Z,30.89
2022-08-26T13:27:20.936Z,31.20
2022-08-26T13:29:52.897Z,30.26
2022-08-26T13:32:26.898Z,30.03
2022-08-26T13:35:00.328Z,30.26
2022-08-26T13:37:37.603Z,30.67
2022-08-26T13:40:10.771Z,30.94
2022-08-26T13:42:49.614Z,31.03
2022-08-26T13:45:21.545Z,30.41
2022-08-26T13:47:53.618Z,30.70
2022-08-26T13:50:25.157Z,31.03
2022-08-26T13:52:56.691Z,31.74
2022-08-26T13:55:28.261Z,31.51
2022-08-26T13:57:59.805Z,31.58
2022-08-26T14:00:34.039Z,31.85
2022-08-26T14:03:08.215Z,32.30
2022-08-26T14:05:42.950Z,32.45
2022-08-26T14:08:14.851Z,32.14
2022-08-26T14:13:18.674Z,31.55
2022-08-26T14:15:51.214Z,31.26
2022-08-26T14:18:27.375Z,31.43
2022-08-26T14:21:00.433Z,31.67
2022-08-26T14:23:31.889Z,31.91
2022-08-26T14:26:08.444Z,32.24
2022-08-26T14:28:42.135Z,32.85
2022-08-26T14:31:13.769Z,33.07
2022-08-26T14:33:45.379Z,32.91
2022-08-26T14:36:32.877Z,33.07
2022-08-26T14:39:10.477Z,33.12
2022-08-26T14:41:45.988Z,33.31
2022-08-26T14:44:30.083Z,33.51
2022-08-26T14:47:03.667Z,33.84
2022-08-26T14:49:35.390Z,34.17
2022-08-26T14:52:07.249Z,34.47
2022-08-26T14:54:39.139Z,34.79
2022-08-26T14:57:13.789Z,34.78
2022-08-26T14:59:49.857Z,34.93
2022-08-26T15:02:33.256Z,35.06
2022-08-26T15:05:05.664Z,35.15
2022-08-26T15:07:37.287Z,35.42
2022-08-26T15:10:12.115Z,35.52
2022-08-26T15:12:44.153Z,35.56
2022-08-26T15:15:19.265Z,35.75
2022-08-26T15:17:50.679Z,35.83
2022-08-26T15:20:22.448Z,35.99
2022-08-26T15:22:53.937Z,36.15
2022-08-26T15:25:26.199Z,36.57
2022-08-26T15:27:57.666Z,36.80
2022-08-26T15:30:29.239Z,36.91
2022-08-26T15:33:00.778Z,37.03
2022-08-26T15:35:33.091Z,36.98
2022-08-26T15:38:09.935Z,37.18
2022-08-26T15:40:41.693Z,37.15
2022-08-26T15:43:27.812Z,37.34
2022-08-26T15:46:00.357Z,37.48
2022-08-26T15:48:31.709Z,37.48
2022-08-26T15:51:04.188Z,37.39
2022-08-26T15:53:38.137Z,37.58
2022-08-26T15:56:08.282Z,37.77
2022-08-26T15:58:39.916Z,37.75
2022-08-26T16:01:12.351Z,38.00
2022-08-26T16:03:43.827Z,38.05
2022-08-26T16:06:20.527Z,37.82
2022-08-26T16:08:52.029Z,37.82
2022-08-26T16:11:23.671Z,38.08
2022-08-26T16:13:55.605Z,38.02
2022-08-26T16:16:27.342Z,37.81
2022-08-26T16:18:59.389Z,37.69
2022-08-26T16:21:31.504Z,37.57
2022-08-26T16:24:03.565Z,37.86
2022-08-26T16:26:37.141Z,37.84
2022-08-26T16:29:11.101Z,37.65
2022-08-26T16:31:43.158Z,37.79
2022-08-26T16:34:14.907Z,37.86
2022-08-26T16:36:46.773Z,38.34
2022-08-26T16:39:18.459Z,38.72
2022-08-26T16:41:50.093Z,39.02
2022-08-26T16:44:22.617Z,39.32
2022-08-26T16:46:58.689Z,39.38
2022-08-26T16:49:30.372Z,39.37
2022-08-26T16:52:01.824Z,39.51
2022-08-26T16:54:33.732Z,39.46
2022-08-26T16:57:05.655Z,39.91
2022-08-26T16:59:37.655Z,39.85
2022-08-26T17:02:12.376Z,40.30
2022-08-26T17:04:46.204Z,40.67
2022-08-26T17:07:18.804Z,41.26
2022-08-26T17:09:50.444Z,41.84
2022-08-26T17:12:22.473Z,41.89
2022-08-26T17:14:53.894Z,42.29
2022-08-26T17:17:25.642Z,42.76
2022-08-26T17:19:57.424Z,42.92
2022-08-26T17:22:32.811Z,43.45
2022-08-26T17:25:06.617Z,43.73
2022-08-26T17:27:38.301Z,43.74
2022-08-26T17:30:11.935Z,44.11
2022-08-26T17:32:44.481Z,44.28
2022-08-26T17:35:17.196Z,44.24
2022-08-26T17:37:48.709Z,44.14
2022-08-26T17:40:23.048Z,43.87
2022-08-26T17:42:55.076Z,43.97
2022-08-26T17:45:27.220Z,43.78
2022-08-26T17:47:59.095Z,44.22
2022-08-26T17:50:30.694Z,44.05
2022-08-26T17:53:02.384Z,44.12
2022-08-26T17:55:33.962Z,43.94
2022-08-26T17:58:07.167Z,43.77
2022-08-26T18:00:39.451Z,43.79
2022-08-26T18:03:11.415Z,43.95
2022-08-26T18:05:44.309Z,43.97
2022-08-26T18:08:16.074Z,44.11
2022-08-26T18:10:48.917Z,44.35
2022-08-26T18:13:20.592Z,44.55
2022-08-26T18:15:52.948Z,44.78
2022-08-26T18:18:24.725Z,44.52
2022-08-26T18:21:01.334Z,44.65
2022-08-26T18:23:35.540Z,45.00
2022-08-26T18:26:07.447Z,45.29
2022-08-26T18:28:42.740Z,45.05
2022-08-26T18:31:14.560Z,45.03
2022-08-26T18:33:46.605Z,45.02
2022-08-26T18:36:23.258Z,45.15
2022-08-26T18:38:55.519Z,45.73
2022-08-26T18:41:30.642Z,45.79
2022-08-26T18:44:02.789Z,45.77
2022-08-26T18:46:34.377Z,45.73
2022-08-26T18:49:07.062Z,46.11
2022-08-26T18:51:39.514Z,46.03
2022-08-26T18:54:12.279Z,46.04
2022-08-26T18:56:44.523Z,46.19
2022-08-26T18:59:17.754Z,46.23
2022-08-26T19:01:50.752Z,46.33
2022-08-26T19:04:22.712Z,46.34
2022-08-26T19:06:54.859Z,46.60
2022-08-26T19:09:26.734Z,46.64
2022-08-26T19:11:59.766Z,46.31
2022-08-26T19:14:33.147Z,46.27
2022-08-26T19:17:04.870Z,46.44
2022-08-26T19:19:36.709Z,46.58
2022-08-26T19:22:09.131Z,46.66
2022-08-26T19:24:41.734Z,46.68
2022-08-26T19:27:17.532Z,47.02
2022-08-26T19:29:49.833Z,47.32
2022-08-26T19:32:24.873Z,47.53
2022-08-26T19:34:56.876Z,47.90
2022-08-26T19:37:28.650Z,47.56
2022-08-26T19:40:00.977Z,47.68
2022-08-26T19:42:33.031Z,47.71
2022-08-26T19:45:24.875Z,48.20
2022-08-26T19:47:57.591Z,48.07
2022-08-26T19:50:31.700Z,48.25
2022-08-26T19:53:04.854Z,48.13
2022-08-26T19:55:36.783Z,48.12
2022-08-26T19:58:10.193Z,48.12
2022-08-26T20:00:42.803Z,48.25
2022-08-26T20:03:16.444Z,48.47
2022-08-26T20:05:49.156Z,49.03
2022-08-26T20:08:22.831Z,49.21
2022-08-26T20:10:56.085Z,49.17
2022-08-26T20:13:28.178Z,49.49
2022-08-26T20:16:00.162Z,49.80
2022-08-26T20:18:49.303Z,50.62
2022-08-26T20:21:31.615Z,50.64
2022-08-26T20:24:09.007Z,50.76
2022-08-26T20:26:43.370Z,51.15
2022-08-26T20:29:18.180Z,51.13
2022-08-26T20:31:50.530Z,51.13
2022-08-26T20:34:23.210Z,51.47
2022-08-26T20:36:55.601Z,51.80
2022-08-26T20:39:29.743Z,52.60
2022-08-26T20:42:01.521Z,52.55
2022-08-26T20:44:32.978Z,52.49
2022-08-26T20:47:05.000Z,52.97
2022-08-26T20:49:37.975Z,53.15
2022-08-26T20:52:10.132Z,53.54
2022-08-26T20:54:42.517Z,53.78
2022-08-26T20:57:14.872Z,53.36
2022-08-26T20:59:46.359Z,53.15
2022-08-26T21:02:18.701Z,53.39
2022-08-26T21:04:51.333Z,53.67
2022-08-26T21:07:23.203Z,53.70
2022-08-26T21:09:55.600Z,53.87
2022-08-26T21:12:27.840Z,53.66
2022-08-26T21:14:59.460Z,53.75
2022-08-26T21:17:31.578Z,53.68
2022-08-26T21:20:03.038Z,53.36
2022-08-26T21:22:34.423Z,53.67
2022-08-26T21:25:06.529Z,53.84
2022-08-26T21:27:39.987Z,54.21
2022-08-26T21:30:14.957Z,54.59
2022-08-26T21:32:46.540Z,54.99
2022-08-26T21:35:18.129Z,55.26
2022-08-26T21:37:50.593Z,55.39
2022-08-26T21:40:22.320Z,55.46
2022-08-26T21:42:53.714Z,55.88
2022-08-26T21:45:26.607Z,56.56
2022-08-26T21:47:58.671Z,57.04
2022-08-26T21:50:30.869Z,57.01
2022-08-26T21:53:03.267Z,57.40
2022-08-26T21:55:39.114Z,57.46
2022-08-26T21:58:11.313Z,57.50
2022-08-26T22:00:51.283Z,57.85
2022-08-26T22:03:22.823Z,58.14
2022-08-26T22:05:56.937Z,57.89
2022-08-26T22:08:31.147Z,57.82
2022-08-26T22:11:04.233Z,57.84
2022-08-26T22:13:38.943Z,57.94
2022-08-26T22:16:12.128Z,57.99
2022-08-26T22:18:46.094Z,57.88
2022-08-26T22:21:20.587Z,58.32
2022-08-26T22:23:56.100Z,58.50
2022-08-26T22:26:32.485Z,58.07
2022-08-26T22:29:02.605Z,57.85
2022-08-26T22:31:37.505Z,57.61
2022-08-26T22:34:12.839Z,58.37
2022-08-26T22:36:47.962Z,58.46
2022-08-26T22:39:21.882Z,58.34
2022-08-26T22:41:54.724Z,58.50
2022-08-26T22:44:27.803Z,58.73
2022-08-26T22:46:59.361Z,59.08
2022-08-26T22:49:30.994Z,59.07
2022-08-26T22:52:02.769Z,59.00
2022-08-26T22:54:34.559Z,58.72
2022-08-26T22:57:06.378Z,58.58
2022-08-26T22:59:38.409Z,58.81
2022-08-26T23:02:11.955Z,58.98
2022-08-26T23:04:43.323Z,59.48
2022-08-26T23:07:15.100Z,59.16
2022-08-26T23:09:46.770Z,59.77
2022-08-26T23:12:20.338Z,59.88
2022-08-26T23:14:52.438Z,59.68
2022-08-26T23:17:24.359Z,59.37
2022-08-26T23:19:58.449Z,59.22
2022-08-26T23:22:30.017Z,58.93
2022-08-26T23:25:02.850Z,58.73
2022-08-26T23:27:44.359Z,58.56
2022-08-26T23:30:20.281Z,58.61
2022-08-26T23:32:52.989Z,59.21
2022-08-26T23:35:26.008Z,59.41
2022-08-26T23:37:59.237Z,59.71
2022-08-26T23:40:34.710Z,60.17
2022-08-26T23:43:08.637Z,60.33
2022-08-26T23:45:40.350Z,60.25
2022-08-26T23:48:12.028Z,60.11
2022-08-26T23:51:00.893Z,60.44
2022-08-26T23:53:32.335Z,60.89
2022-08-26T23:56:04.423Z,61.61
2022-08-26T23:58:35.847Z,61.53
